Terminal Aerodrome Forecast
Issued by NWS Twin Cities, MN

Home | Current Version | Previous Version | Text Only | Print | Product List | Glossary Off
Versions: 1 2 3 4 5 6 7 8 9 10 11 12 13 14 15 16

119
FTUS43 KMPX 142340
TAFEAU
TAF
KEAU 142340Z 1500/1524 VRB03KT P6SM BKN020 BKN050
     FM150100 VRB02KT P6SM SCT250
     FM150600 00000KT 3SM BR SCT002
     FM150700 00000KT 1/4SM FG VV002
     FM151300 05003KT 3SM BR SCT005
     FM151500 06005KT P6SM SCT040=

USA.gov is the U.S. government's official web portal to all federal, state and local government web resources and services.